sensor_id;sensor_type;location;lat;lon;timestamp;P1;durP1;ratioP1;P2;durP2;ratioP2
4857;SDS011;58975;51.978;8.472;2024-02-26T00:00:20;10.25;;;6.28;;
4857;SDS011;58975;51.978;8.472;2024-02-26T00:05:17;8.35;;;4.80;;
4857;SDS011;58975;51.978;8.472;2024-02-26T00:10:13;9.95;;;5.20;;
4857;SDS011;58975;51.978;8.472;2024-02-26T00:15:10;9.75;;;4.70;;
4857;SDS011;58975;51.978;8.472;2024-02-26T00:20:07;9.48;;;5.22;;
4857;SDS011;58975;51.978;8.472;2024-02-26T00:25:06;8.43;;;4.80;;
4857;SDS011;58975;51.978;8.472;2024-02-26T00:30:03;6.20;;;4.22;;
4857;SDS011;58975;51.978;8.472;2024-02-26T00:35:00;5.60;;;3.72;;
4857;SDS011;58975;51.978;8.472;2024-02-26T00:39:57;9.68;;;4.32;;
4857;SDS011;58975;51.978;8.472;2024-02-26T00:44:53;5.85;;;3.50;;
4857;SDS011;58975;51.978;8.472;2024-02-26T00:49:50;4.13;;;3.55;;
4857;SDS011;58975;51.978;8.472;2024-02-26T00:54:47;5.45;;;3.15;;
4857;SDS011;58975;51.978;8.472;2024-02-26T00:59:43;7.22;;;4.13;;
4857;SDS011;58975;51.978;8.472;2024-02-26T01:04:39;5.50;;;3.38;;
4857;SDS011;58975;51.978;8.472;2024-02-26T01:09:36;6.80;;;4.20;;
4857;SDS011;58975;51.978;8.472;2024-02-26T01:14:32;5.50;;;3.45;;
4857;SDS011;58975;51.978;8.472;2024-02-26T01:19:29;5.75;;;3.25;;
4857;SDS011;58975;51.978;8.472;2024-02-26T01:24:25;5.00;;;3.05;;
4857;SDS011;58975;51.978;8.472;2024-02-26T01:29:21;5.55;;;2.90;;
4857;SDS011;58975;51.978;8.472;2024-02-26T01:34:18;4.30;;;3.38;;
4857;SDS011;58975;51.978;8.472;2024-02-26T01:39:15;3.80;;;2.95;;
4857;SDS011;58975;51.978;8.472;2024-02-26T01:44:12;5.07;;;2.95;;
4857;SDS011;58975;51.978;8.472;2024-02-26T01:49:09;4.90;;;2.93;;
4857;SDS011;58975;51.978;8.472;2024-02-26T01:54:09;5.55;;;2.95;;
4857;SDS011;58975;51.978;8.472;2024-02-26T01:59:05;4.15;;;2.78;;
4857;SDS011;58975;51.978;8.472;2024-02-26T02:04:04;6.03;;;3.20;;
4857;SDS011;58975;51.978;8.472;2024-02-26T02:09:00;3.85;;;2.83;;
4857;SDS011;58975;51.978;8.472;2024-02-26T02:14:02;4.57;;;2.88;;
4857;SDS011;58975;51.978;8.472;2024-02-26T02:18:58;2.97;;;2.58;;
4857;SDS011;58975;51.978;8.472;2024-02-26T02:23:55;3.40;;;3.05;;
4857;SDS011;58975;51.978;8.472;2024-02-26T02:28:52;8.27;;;2.83;;
4857;SDS011;58975;51.978;8.472;2024-02-26T02:33:49;6.30;;;3.03;;
4857;SDS011;58975;51.978;8.472;2024-02-26T02:38:49;6.15;;;3.53;;
4857;SDS011;58975;51.978;8.472;2024-02-26T02:43:46;5.53;;;2.75;;
4857;SDS011;58975;51.978;8.472;2024-02-26T02:48:43;4.32;;;2.60;;
4857;SDS011;58975;51.978;8.472;2024-02-26T02:53:40;3.47;;;2.40;;
4857;SDS011;58975;51.978;8.472;2024-02-26T02:58:36;5.90;;;2.40;;
4857;SDS011;58975;51.978;8.472;2024-02-26T03:03:33;3.85;;;2.42;;
4857;SDS011;58975;51.978;8.472;2024-02-26T03:08:29;2.78;;;2.30;;
4857;SDS011;58975;51.978;8.472;2024-02-26T03:13:25;3.00;;;2.30;;
4857;SDS011;58975;51.978;8.472;2024-02-26T03:18:22;3.45;;;2.22;;
4857;SDS011;58975;51.978;8.472;2024-02-26T03:23:18;2.13;;;1.60;;
4857;SDS011;58975;51.978;8.472;2024-02-26T03:28:15;2.33;;;1.67;;
4857;SDS011;58975;51.978;8.472;2024-02-26T03:33:11;4.03;;;1.77;;
4857;SDS011;58975;51.978;8.472;2024-02-26T03:38:08;5.53;;;2.13;;
4857;SDS011;58975;51.978;8.472;2024-02-26T03:43:04;2.92;;;2.17;;
4857;SDS011;58975;51.978;8.472;2024-02-26T03:48:03;4.35;;;1.60;;
4857;SDS011;58975;51.978;8.472;2024-02-26T03:53:00;2.63;;;1.60;;
4857;SDS011;58975;51.978;8.472;2024-02-26T03:57:56;3.17;;;1.92;;
4857;SDS011;58975;51.978;8.472;2024-02-26T04:02:53;3.58;;;1.83;;
4857;SDS011;58975;51.978;8.472;2024-02-26T04:07:49;2.67;;;2.22;;
4857;SDS011;58975;51.978;8.472;2024-02-26T04:12:45;1.88;;;1.70;;
4857;SDS011;58975;51.978;8.472;2024-02-26T04:17:42;4.47;;;1.98;;
4857;SDS011;58975;51.978;8.472;2024-02-26T04:22:39;1.95;;;1.67;;
4857;SDS011;58975;51.978;8.472;2024-02-26T04:27:35;2.55;;;1.38;;
4857;SDS011;58975;51.978;8.472;2024-02-26T04:32:31;2.78;;;1.85;;
4857;SDS011;58975;51.978;8.472;2024-02-26T04:37:28;2.10;;;1.80;;
4857;SDS011;58975;51.978;8.472;2024-02-26T04:42:27;1.80;;;1.45;;
4857;SDS011;58975;51.978;8.472;2024-02-26T04:47:24;1.52;;;1.42;;
4857;SDS011;58975;51.978;8.472;2024-02-26T04:52:21;2.13;;;1.52;;
4857;SDS011;58975;51.978;8.472;2024-02-26T04:57:18;3.47;;;1.45;;
4857;SDS011;58975;51.978;8.472;2024-02-26T05:02:14;2.17;;;1.50;;
4857;SDS011;58975;51.978;8.472;2024-02-26T05:07:11;2.60;;;1.42;;
4857;SDS011;58975;51.978;8.472;2024-02-26T05:12:09;2.63;;;2.08;;
4857;SDS011;58975;51.978;8.472;2024-02-26T05:17:06;1.67;;;1.40;;
4857;SDS011;58975;51.978;8.472;2024-02-26T05:22:02;1.70;;;1.50;;
4857;SDS011;58975;51.978;8.472;2024-02-26T05:26:59;2.50;;;1.73;;
4857;SDS011;58975;51.978;8.472;2024-02-26T05:31:56;2.33;;;1.60;;
4857;SDS011;58975;51.978;8.472;2024-02-26T05:36:52;2.40;;;1.58;;
4857;SDS011;58975;51.978;8.472;2024-02-26T05:41:49;2.33;;;1.67;;
4857;SDS011;58975;51.978;8.472;2024-02-26T05:46:46;10.32;;;2.17;;
4857;SDS011;58975;51.978;8.472;2024-02-26T05:51:42;3.15;;;1.52;;
4857;SDS011;58975;51.978;8.472;2024-02-26T05:56:38;3.85;;;1.70;;
4857;SDS011;58975;51.978;8.472;2024-02-26T06:01:35;2.03;;;1.40;;
4857;SDS011;58975;51.978;8.472;2024-02-26T06:06:31;6.57;;;1.60;;
4857;SDS011;58975;51.978;8.472;2024-02-26T06:11:28;2.45;;;1.63;;
4857;SDS011;58975;51.978;8.472;2024-02-26T06:16:24;3.20;;;1.55;;
4857;SDS011;58975;51.978;8.472;2024-02-26T06:21:21;1.90;;;1.60;;
4857;SDS011;58975;51.978;8.472;2024-02-26T06:26:17;3.00;;;1.60;;
4857;SDS011;58975;51.978;8.472;2024-02-26T06:31:14;2.40;;;1.90;;
4857;SDS011;58975;51.978;8.472;2024-02-26T06:36:10;4.95;;;1.80;;
4857;SDS011;58975;51.978;8.472;2024-02-26T06:41:06;3.50;;;2.05;;
4857;SDS011;58975;51.978;8.472;2024-02-26T06:46:03;4.55;;;1.80;;
4857;SDS011;58975;51.978;8.472;2024-02-26T06:50:59;2.28;;;1.35;;
4857;SDS011;58975;51.978;8.472;2024-02-26T06:55:56;4.28;;;1.98;;
4857;SDS011;58975;51.978;8.472;2024-02-26T07:00:52;5.93;;;1.60;;
4857;SDS011;58975;51.978;8.472;2024-02-26T07:05:49;1.98;;;1.88;;
4857;SDS011;58975;51.978;8.472;2024-02-26T07:10:45;3.28;;;1.75;;
4857;SDS011;58975;51.978;8.472;2024-02-26T07:15:42;3.05;;;1.52;;
4857;SDS011;58975;51.978;8.472;2024-02-26T07:20:38;2.33;;;1.60;;
4857;SDS011;58975;51.978;8.472;2024-02-26T07:25:35;2.25;;;1.70;;
4857;SDS011;58975;51.978;8.472;2024-02-26T07:30:31;3.17;;;1.88;;
4857;SDS011;58975;51.978;8.472;2024-02-26T07:35:28;3.20;;;2.22;;
4857;SDS011;58975;51.978;8.472;2024-02-26T07:40:25;2.05;;;1.85;;
4857;SDS011;58975;51.978;8.472;2024-02-26T07:45:22;6.75;;;2.17;;
4857;SDS011;58975;51.978;8.472;2024-02-26T07:50:18;2.72;;;1.80;;
4857;SDS011;58975;51.978;8.472;2024-02-26T07:55:16;6.45;;;2.33;;
4857;SDS011;58975;51.978;8.472;2024-02-26T08:00:12;3.55;;;2.40;;
4857;SDS011;58975;51.978;8.472;2024-02-26T08:05:12;6.57;;;2.45;;
4857;SDS011;58975;51.978;8.472;2024-02-26T08:10:09;4.15;;;2.38;;
4857;SDS011;58975;51.978;8.472;2024-02-26T08:15:07;4.75;;;2.35;;
4857;SDS011;58975;51.978;8.472;2024-02-26T08:20:04;3.33;;;1.90;;
4857;SDS011;58975;51.978;8.472;2024-02-26T08:25:01;3.13;;;2.00;;
4857;SDS011;58975;51.978;8.472;2024-02-26T08:30:02;7.15;;;2.95;;
4857;SDS011;58975;51.978;8.472;2024-02-26T08:34:59;5.57;;;3.25;;
4857;SDS011;58975;51.978;8.472;2024-02-26T08:39:56;6.15;;;3.05;;
4857;SDS011;58975;51.978;8.472;2024-02-26T08:44:56;7.38;;;3.72;;
4857;SDS011;58975;51.978;8.472;2024-02-26T08:49:56;5.15;;;3.30;;
4857;SDS011;58975;51.978;8.472;2024-02-26T08:54:52;8.18;;;3.88;;
4857;SDS011;58975;51.978;8.472;2024-02-26T08:59:49;6.28;;;3.60;;
4857;SDS011;58975;51.978;8.472;2024-02-26T09:04:45;8.45;;;3.78;;
4857;SDS011;58975;51.978;8.472;2024-02-26T09:09:42;6.25;;;4.35;;
4857;SDS011;58975;51.978;8.472;2024-02-26T09:14:39;5.70;;;3.83;;
4857;SDS011;58975;51.978;8.472;2024-02-26T09:19:36;8.35;;;4.03;;
4857;SDS011;58975;51.978;8.472;2024-02-26T09:24:34;8.30;;;4.50;;
4857;SDS011;58975;51.978;8.472;2024-02-26T09:29:31;7.53;;;4.50;;
4857;SDS011;58975;51.978;8.472;2024-02-26T09:34:27;7.18;;;4.63;;
4857;SDS011;58975;51.978;8.472;2024-02-26T09:39:24;7.63;;;4.40;;
4857;SDS011;58975;51.978;8.472;2024-02-26T09:44:21;8.82;;;4.53;;
4857;SDS011;58975;51.978;8.472;2024-02-26T09:49:18;9.05;;;4.07;;
4857;SDS011;58975;51.978;8.472;2024-02-26T09:54:17;9.20;;;4.43;;
4857;SDS011;58975;51.978;8.472;2024-02-26T09:59:15;7.80;;;4.00;;
4857;SDS011;58975;51.978;8.472;2024-02-26T10:04:13;7.20;;;4.35;;
4857;SDS011;58975;51.978;8.472;2024-02-26T10:09:11;6.13;;;3.43;;
4857;SDS011;58975;51.978;8.472;2024-02-26T10:14:08;7.47;;;3.72;;
4857;SDS011;58975;51.978;8.472;2024-02-26T10:19:06;8.10;;;3.30;;
4857;SDS011;58975;51.978;8.472;2024-02-26T10:24:02;4.50;;;2.97;;
4857;SDS011;58975;51.978;8.472;2024-02-26T10:28:59;5.30;;;3.03;;
4857;SDS011;58975;51.978;8.472;2024-02-26T10:33:57;5.93;;;3.17;;
4857;SDS011;58975;51.978;8.472;2024-02-26T10:38:57;7.30;;;3.10;;
4857;SDS011;58975;51.978;8.472;2024-02-26T10:43:57;4.28;;;2.80;;
4857;SDS011;58975;51.978;8.472;2024-02-26T10:48:54;7.13;;;3.78;;
4857;SDS011;58975;51.978;8.472;2024-02-26T10:53:56;6.23;;;2.97;;
4857;SDS011;58975;51.978;8.472;2024-02-26T10:58:57;4.13;;;2.40;;
4857;SDS011;58975;51.978;8.472;2024-02-26T11:03:54;4.32;;;2.47;;
4857;SDS011;58975;51.978;8.472;2024-02-26T11:08:52;3.55;;;2.55;;
4857;SDS011;58975;51.978;8.472;2024-02-26T11:13:49;3.63;;;2.53;;
4857;SDS011;58975;51.978;8.472;2024-02-26T11:18:47;4.63;;;2.85;;
4857;SDS011;58975;51.978;8.472;2024-02-26T11:23:47;4.97;;;2.83;;
4857;SDS011;58975;51.978;8.472;2024-02-26T11:28:44;4.18;;;2.85;;
4857;SDS011;58975;51.978;8.472;2024-02-26T11:33:42;4.13;;;2.92;;
4857;SDS011;58975;51.978;8.472;2024-02-26T11:38:39;5.72;;;3.25;;
4857;SDS011;58975;51.978;8.472;2024-02-26T11:43:52;9.68;;;2.90;;
4857;SDS011;58975;51.978;8.472;2024-02-26T11:48:49;7.28;;;3.10;;
4857;SDS011;58975;51.978;8.472;2024-02-26T11:53:46;4.90;;;3.20;;
4857;SDS011;58975;51.978;8.472;2024-02-26T11:58:44;7.80;;;3.90;;
4857;SDS011;58975;51.978;8.472;2024-02-26T12:03:41;5.57;;;3.95;;
4857;SDS011;58975;51.978;8.472;2024-02-26T12:08:38;5.32;;;2.65;;
4857;SDS011;58975;51.978;8.472;2024-02-26T12:13:34;7.15;;;4.03;;
4857;SDS011;58975;51.978;8.472;2024-02-26T12:18:31;7.07;;;3.08;;
4857;SDS011;58975;51.978;8.472;2024-02-26T12:23:28;5.57;;;3.90;;
4857;SDS011;58975;51.978;8.472;2024-02-26T12:28:28;6.38;;;3.58;;
4857;SDS011;58975;51.978;8.472;2024-02-26T12:33:25;7.88;;;3.83;;
4857;SDS011;58975;51.978;8.472;2024-02-26T12:38:23;7.10;;;4.05;;
4857;SDS011;58975;51.978;8.472;2024-02-26T12:43:20;10.25;;;4.70;;
4857;SDS011;58975;51.978;8.472;2024-02-26T12:48:16;9.13;;;4.82;;
4857;SDS011;58975;51.978;8.472;2024-02-26T12:53:13;7.28;;;3.80;;
4857;SDS011;58975;51.978;8.472;2024-02-26T12:58:10;8.18;;;2.92;;
4857;SDS011;58975;51.978;8.472;2024-02-26T13:03:07;6.50;;;3.03;;
4857;SDS011;58975;51.978;8.472;2024-02-26T13:08:05;4.90;;;3.13;;
4857;SDS011;58975;51.978;8.472;2024-02-26T13:13:05;3.42;;;2.38;;
4857;SDS011;58975;51.978;8.472;2024-02-26T13:18:08;5.55;;;1.98;;
4857;SDS011;58975;51.978;8.472;2024-02-26T13:23:07;4.22;;;2.17;;
4857;SDS011;58975;51.978;8.472;2024-02-26T13:33:12;4.03;;;1.90;;
4857;SDS011;58975;51.978;8.472;2024-02-26T13:38:10;4.18;;;2.08;;
4857;SDS011;58975;51.978;8.472;2024-02-26T13:43:07;3.53;;;2.28;;
4857;SDS011;58975;51.978;8.472;2024-02-26T13:48:05;2.53;;;1.90;;
4857;SDS011;58975;51.978;8.472;2024-02-26T13:53:03;3.78;;;2.30;;
4857;SDS011;58975;51.978;8.472;2024-02-26T13:58:00;4.35;;;2.25;;
4857;SDS011;58975;51.978;8.472;2024-02-26T14:02:58;3.08;;;2.30;;
4857;SDS011;58975;51.978;8.472;2024-02-26T14:07:55;3.47;;;2.10;;
4857;SDS011;58975;51.978;8.472;2024-02-26T14:12:52;5.22;;;2.00;;
4857;SDS011;58975;51.978;8.472;2024-02-26T14:17:48;4.13;;;2.35;;
4857;SDS011;58975;51.978;8.472;2024-02-26T14:22:51;2.95;;;1.75;;
4857;SDS011;58975;51.978;8.472;2024-02-26T14:27:50;2.33;;;1.95;;
4857;SDS011;58975;51.978;8.472;2024-02-26T14:32:47;3.95;;;2.22;;
4857;SDS011;58975;51.978;8.472;2024-02-26T14:37:44;4.63;;;2.10;;
4857;SDS011;58975;51.978;8.472;2024-02-26T14:42:45;4.28;;;2.25;;
4857;SDS011;58975;51.978;8.472;2024-02-26T14:47:42;3.90;;;2.38;;
4857;SDS011;58975;51.978;8.472;2024-02-26T14:52:38;4.15;;;2.28;;
4857;SDS011;58975;51.978;8.472;2024-02-26T14:57:34;3.08;;;2.10;;
4857;SDS011;58975;51.978;8.472;2024-02-26T15:02:31;3.35;;;2.17;;
4857;SDS011;58975;51.978;8.472;2024-02-26T15:07:27;5.57;;;2.10;;
4857;SDS011;58975;51.978;8.472;2024-02-26T15:12:24;2.97;;;2.33;;
4857;SDS011;58975;51.978;8.472;2024-02-26T15:17:22;5.00;;;2.60;;
4857;SDS011;58975;51.978;8.472;2024-02-26T15:22:19;4.10;;;2.40;;
4857;SDS011;58975;51.978;8.472;2024-02-26T15:27:15;4.53;;;2.15;;
4857;SDS011;58975;51.978;8.472;2024-02-26T15:32:13;3.78;;;1.90;;
4857;SDS011;58975;51.978;8.472;2024-02-26T15:37:10;3.90;;;2.00;;
4857;SDS011;58975;51.978;8.472;2024-02-26T15:42:10;2.70;;;1.92;;
4857;SDS011;58975;51.978;8.472;2024-02-26T15:47:06;2.97;;;1.80;;
4857;SDS011;58975;51.978;8.472;2024-02-26T15:52:03;3.92;;;1.75;;
4857;SDS011;58975;51.978;8.472;2024-02-26T15:57:00;2.97;;;1.60;;
4857;SDS011;58975;51.978;8.472;2024-02-26T16:01:58;6.83;;;2.20;;
4857;SDS011;58975;51.978;8.472;2024-02-26T16:06:56;3.03;;;1.55;;
4857;SDS011;58975;51.978;8.472;2024-02-26T16:11:57;1.83;;;1.40;;
4857;SDS011;58975;51.978;8.472;2024-02-26T16:16:58;2.17;;;1.52;;
4857;SDS011;58975;51.978;8.472;2024-02-26T16:22:00;4.57;;;1.55;;
4857;SDS011;58975;51.978;8.472;2024-02-26T16:26:56;2.75;;;1.55;;
4857;SDS011;58975;51.978;8.472;2024-02-26T16:31:52;4.25;;;1.67;;
4857;SDS011;58975;51.978;8.472;2024-02-26T16:36:49;1.80;;;1.52;;
4857;SDS011;58975;51.978;8.472;2024-02-26T16:41:46;1.27;;;0.80;;
4857;SDS011;58975;51.978;8.472;2024-02-26T16:46:43;4.63;;;1.38;;
4857;SDS011;58975;51.978;8.472;2024-02-26T16:51:39;4.00;;;1.00;;
4857;SDS011;58975;51.978;8.472;2024-02-26T16:56:36;1.27;;;1.17;;
4857;SDS011;58975;51.978;8.472;2024-02-26T17:01:32;1.10;;;1.00;;
4857;SDS011;58975;51.978;8.472;2024-02-26T17:06:28;1.88;;;0.90;;
4857;SDS011;58975;51.978;8.472;2024-02-26T17:11:25;2.08;;;1.02;;
4857;SDS011;58975;51.978;8.472;2024-02-26T17:16:24;2.63;;;0.95;;
4857;SDS011;58975;51.978;8.472;2024-02-26T17:21:20;1.85;;;1.15;;
4857;SDS011;58975;51.978;8.472;2024-02-26T17:26:17;1.23;;;1.08;;
4857;SDS011;58975;51.978;8.472;2024-02-26T17:31:17;3.80;;;1.23;;
4857;SDS011;58975;51.978;8.472;2024-02-26T17:36:14;1.60;;;1.00;;
4857;SDS011;58975;51.978;8.472;2024-02-26T17:41:10;1.02;;;0.88;;
4857;SDS011;58975;51.978;8.472;2024-02-26T17:46:08;1.77;;;1.43;;
4857;SDS011;58975;51.978;8.472;2024-02-26T17:51:05;4.07;;;1.02;;
4857;SDS011;58975;51.978;8.472;2024-02-26T17:56:03;1.23;;;1.03;;
4857;SDS011;58975;51.978;8.472;2024-02-26T18:01:02;2.30;;;1.50;;
4857;SDS011;58975;51.978;8.472;2024-02-26T18:06:00;2.00;;;1.25;;
4857;SDS011;58975;51.978;8.472;2024-02-26T18:10:57;2.05;;;1.23;;
4857;SDS011;58975;51.978;8.472;2024-02-26T18:15:53;2.53;;;1.52;;
4857;SDS011;58975;51.978;8.472;2024-02-26T18:20:53;2.38;;;1.30;;
4857;SDS011;58975;51.978;8.472;2024-02-26T18:25:50;2.70;;;1.73;;
4857;SDS011;58975;51.978;8.472;2024-02-26T18:30:46;2.05;;;1.50;;
4857;SDS011;58975;51.978;8.472;2024-02-26T18:35:43;3.15;;;2.38;;
4857;SDS011;58975;51.978;8.472;2024-02-26T18:40:40;2.95;;;1.48;;
4857;SDS011;58975;51.978;8.472;2024-02-26T18:45:36;2.47;;;1.85;;
4857;SDS011;58975;51.978;8.472;2024-02-26T18:50:34;3.47;;;1.60;;
4857;SDS011;58975;51.978;8.472;2024-02-26T18:55:31;4.18;;;2.55;;
4857;SDS011;58975;51.978;8.472;2024-02-26T19:00:28;3.63;;;1.60;;
4857;SDS011;58975;51.978;8.472;2024-02-26T19:05:25;2.38;;;1.80;;
4857;SDS011;58975;51.978;8.472;2024-02-26T19:10:22;2.15;;;1.58;;
4857;SDS011;58975;51.978;8.472;2024-02-26T19:15:18;2.00;;;1.40;;
4857;SDS011;58975;51.978;8.472;2024-02-26T19:20:17;4.13;;;2.17;;
4857;SDS011;58975;51.978;8.472;2024-02-26T19:25:15;3.58;;;2.28;;
4857;SDS011;58975;51.978;8.472;2024-02-26T19:30:12;4.22;;;2.03;;
4857;SDS011;58975;51.978;8.472;2024-02-26T19:35:08;2.70;;;1.85;;
4857;SDS011;58975;51.978;8.472;2024-02-26T19:40:06;2.20;;;1.20;;
4857;SDS011;58975;51.978;8.472;2024-02-26T19:45:03;3.92;;;1.95;;
4857;SDS011;58975;51.978;8.472;2024-02-26T19:50:01;3.22;;;2.28;;
4857;SDS011;58975;51.978;8.472;2024-02-26T19:54:58;2.83;;;1.92;;
4857;SDS011;58975;51.978;8.472;2024-02-26T19:59:55;6.10;;;2.70;;
4857;SDS011;58975;51.978;8.472;2024-02-26T20:04:52;2.95;;;2.17;;
4857;SDS011;58975;51.978;8.472;2024-02-26T20:09:48;6.30;;;3.35;;
4857;SDS011;58975;51.978;8.472;2024-02-26T20:14:44;3.72;;;2.30;;
4857;SDS011;58975;51.978;8.472;2024-02-26T20:19:41;3.40;;;2.45;;
4857;SDS011;58975;51.978;8.472;2024-02-26T20:24:41;4.43;;;3.10;;
4857;SDS011;58975;51.978;8.472;2024-02-26T20:29:38;5.72;;;2.65;;
4857;SDS011;58975;51.978;8.472;2024-02-26T20:34:35;6.28;;;3.25;;
4857;SDS011;58975;51.978;8.472;2024-02-26T20:39:32;3.78;;;2.97;;
4857;SDS011;58975;51.978;8.472;2024-02-26T20:44:29;5.50;;;3.60;;
4857;SDS011;58975;51.978;8.472;2024-02-26T20:49:25;5.93;;;4.00;;
4857;SDS011;58975;51.978;8.472;2024-02-26T20:54:22;5.95;;;5.20;;
4857;SDS011;58975;51.978;8.472;2024-02-26T20:59:19;10.13;;;5.20;;
4857;SDS011;58975;51.978;8.472;2024-02-26T21:04:15;7.47;;;5.38;;
4857;SDS011;58975;51.978;8.472;2024-02-26T21:09:13;9.07;;;4.97;;
4857;SDS011;58975;51.978;8.472;2024-02-26T21:14:09;10.85;;;6.40;;
4857;SDS011;58975;51.978;8.472;2024-02-26T21:19:06;12.43;;;6.90;;
4857;SDS011;58975;51.978;8.472;2024-02-26T21:24:03;11.52;;;6.90;;
4857;SDS011;58975;51.978;8.472;2024-02-26T21:29:00;13.45;;;8.43;;
4857;SDS011;58975;51.978;8.472;2024-02-26T21:33:56;12.90;;;7.97;;
4857;SDS011;58975;51.978;8.472;2024-02-26T21:38:53;15.25;;;8.85;;
4857;SDS011;58975;51.978;8.472;2024-02-26T21:43:50;17.00;;;8.95;;
4857;SDS011;58975;51.978;8.472;2024-02-26T21:48:48;14.17;;;8.90;;
4857;SDS011;58975;51.978;8.472;2024-02-26T21:53:44;15.30;;;8.93;;
4857;SDS011;58975;51.978;8.472;2024-02-26T21:58:45;14.43;;;9.90;;
4857;SDS011;58975;51.978;8.472;2024-02-26T22:03:41;15.10;;;9.45;;
4857;SDS011;58975;51.978;8.472;2024-02-26T22:08:39;15.90;;;10.05;;
4857;SDS011;58975;51.978;8.472;2024-02-26T22:13:35;16.05;;;10.13;;
4857;SDS011;58975;51.978;8.472;2024-02-26T22:18:31;18.67;;;10.23;;
4857;SDS011;58975;51.978;8.472;2024-02-26T22:23:28;17.55;;;9.85;;
4857;SDS011;58975;51.978;8.472;2024-02-26T22:28:25;17.80;;;11.15;;
4857;SDS011;58975;51.978;8.472;2024-02-26T22:33:21;18.98;;;10.63;;
4857;SDS011;58975;51.978;8.472;2024-02-26T22:38:18;19.55;;;10.65;;
4857;SDS011;58975;51.978;8.472;2024-02-26T22:43:16;20.47;;;11.17;;
4857;SDS011;58975;51.978;8.472;2024-02-26T22:48:12;19.15;;;10.45;;
4857;SDS011;58975;51.978;8.472;2024-02-26T22:53:09;22.27;;;10.90;;
4857;SDS011;58975;51.978;8.472;2024-02-26T22:58:05;17.13;;;10.25;;
4857;SDS011;58975;51.978;8.472;2024-02-26T23:03:02;20.80;;;11.40;;
4857;SDS011;58975;51.978;8.472;2024-02-26T23:07:59;18.70;;;10.73;;
4857;SDS011;58975;51.978;8.472;2024-02-26T23:12:56;18.08;;;10.15;;
4857;SDS011;58975;51.978;8.472;2024-02-26T23:17:53;18.40;;;10.57;;
4857;SDS011;58975;51.978;8.472;2024-02-26T23:22:50;18.02;;;10.73;;
4857;SDS011;58975;51.978;8.472;2024-02-26T23:27:47;20.95;;;10.75;;
4857;SDS011;58975;51.978;8.472;2024-02-26T23:32:45;19.50;;;11.07;;
4857;SDS011;58975;51.978;8.472;2024-02-26T23:37:41;16.63;;;10.50;;
4857;SDS011;58975;51.978;8.472;2024-02-26T23:42:38;21.40;;;11.73;;
4857;SDS011;58975;51.978;8.472;2024-02-26T23:47:34;18.65;;;10.38;;
4857;SDS011;58975;51.978;8.472;2024-02-26T23:52:31;21.98;;;11.57;;
4857;SDS011;58975;51.978;8.472;2024-02-26T23:57:27;21.80;;;11.13;;
